Keith, Illinois
Current Conditions -  °F | °C
As of 10:15 AM on Monday 26 Jan 2015 (Local Time) from KFOA Reporting Station
Overcast Overcast  
Wind Chill: -8°   Ceiling: 1600
Heat Index: -3°   Visibility: 10mi
Dew Point: -6°   Wind: 12mph
Humidity: 79%   Direction: 270°W
Pressure: 30.05"   Gusts: NA
Location:  38.5816°N, 88.4678°W
Report Text: KFOA 261615Z AUTO 27010KT 10SM OVC016 M02/M06 A3005 RMK AO2 T10251057
Loading
Personal Weather Stations






























Interactive Weather Map New forecast layout! Learn more

10-Day Weather Forecast

Advertisements
Track Severe Weather on mobile